Time;durP1;ratioP1;P1;durP2;ratioP2;P2;SDS_P1;SDS_P2;PMS_P1;PMS_P2;Temp;Humidity;BMP_temperature;BMP_pressure;BME280_temperature;BME280_humidity;BME280_pressure;Samples;Min_cycle;Max_cycle;Signal;HPM_P1;HPM_P2
2021/03/23 00:01:18;;;;;;;27.88;14.80;;;;;;;4.45;100.00;102617.75;5157009;28;20030;-69
2021/03/23 00:03:50;;;;;;;30.13;13.82;;;;;;;4.41;100.00;102617.88;5157124;28;20023;-69
2021/03/23 00:06:24;;;;;;;32.13;14.55;;;;;;;4.39;100.00;102621.59;5158072;28;20034;-69
2021/03/23 00:08:59;;;;;;;30.35;13.57;;;;;;;4.37;100.00;102626.13;5157435;28;20110;-69
2021/03/23 00:11:36;;;;;;;30.65;14.55;;;;;;;4.37;100.00;102620.81;5157549;28;20503;-69
2021/03/23 00:14:09;;;;;;;34.53;14.18;;;;;;;4.35;100.00;102623.53;5158022;28;20434;-69
2021/03/23 00:16:43;;;;;;;29.90;14.25;;;;;;;4.34;100.00;102624.50;5158111;28;20363;-69
2021/03/23 00:19:15;;;;;;;30.80;15.05;;;;;;;4.34;100.00;102623.63;5144034;28;20025;-69
2021/03/23 00:21:45;;;;;;;31.63;16.40;;;;;;;4.31;100.00;102621.13;5156977;28;20029;-69
2021/03/23 00:24:16;;;;;;;33.92;15.05;;;;;;;4.30;100.00;102622.94;5158033;28;20022;-69
2021/03/23 00:26:46;;;;;;;31.92;16.00;;;;;;;4.30;100.00;102620.28;5156872;28;20038;-69
2021/03/23 00:29:16;;;;;;;30.73;15.18;;;;;;;4.29;100.00;102618.56;5157641;28;20117;-69
2021/03/23 00:31:47;;;;;;;35.05;14.68;;;;;;;4.31;100.00;102618.47;5156945;28;20034;-69
2021/03/23 00:34:17;;;;;;;31.25;14.45;;;;;;;4.31;100.00;102621.13;5157827;28;20022;-69
2021/03/23 00:36:48;;;;;;;30.30;13.40;;;;;;;4.34;100.00;102616.53;5156704;28;20482;-69
2021/03/23 00:39:18;;;;;;;25.23;12.23;;;;;;;4.42;100.00;102618.78;5157184;28;20468;-69
2021/03/23 00:41:49;;;;;;;32.65;13.15;;;;;;;4.49;100.00;102622.81;5157054;28;20037;-69
2021/03/23 00:44:19;;;;;;;30.60;12.85;;;;;;;4.53;100.00;102621.69;5157187;28;20069;-69
2021/03/23 00:46:50;;;;;;;28.95;13.57;;;;;;;4.60;100.00;102619.56;5158132;28;20068;-69
2021/03/23 00:49:20;;;;;;;35.67;12.88;;;;;;;4.62;100.00;102623.84;5157269;28;20061;-69
2021/03/23 00:51:53;;;;;;;38.00;15.00;;;;;;;4.66;100.00;102622.72;5156297;28;20022;-69
2021/03/23 00:54:23;;;;;;;26.52;12.80;;;;;;;4.70;100.00;102625.22;5157538;28;20026;-69
2021/03/23 00:56:53;;;;;;;32.95;13.70;;;;;;;4.73;100.00;102617.09;5157395;28;20487;-69
2021/03/23 00:59:24;;;;;;;32.65;13.68;;;;;;;4.74;100.00;102621.47;5157172;28;20054;-69
2021/03/23 01:01:54;;;;;;;34.22;12.63;;;;;;;4.76;100.00;102628.38;5156844;28;20022;-69
2021/03/23 01:04:25;;;;;;;33.63;12.50;;;;;;;4.78;100.00;102629.19;5156493;28;20030;-69
2021/03/23 01:06:55;;;;;;;31.13;12.73;;;;;;;4.79;100.00;102628.22;5157391;28;20060;-69
2021/03/23 01:09:26;;;;;;;27.63;12.23;;;;;;;4.80;100.00;102629.94;5193036;28;20032;-69
2021/03/23 01:11:56;;;;;;;36.95;13.60;;;;;;;4.80;100.00;102619.31;5189290;28;20107;-69
2021/03/23 01:14:27;;;;;;;31.58;13.30;;;;;;;4.81;100.00;102621.03;5157523;28;20030;-69
2021/03/23 01:16:57;;;;;;;27.50;12.40;;;;;;;4.81;100.00;102631.66;5154649;28;20069;-69
2021/03/23 01:19:28;;;;;;;26.23;12.65;;;;;;;4.81;100.00;102622.81;5146822;28;20130;-69
2021/03/23 01:21:59;;;;;;;26.85;12.48;;;;;;;4.81;100.00;102620.16;5153437;28;20526;-69
2021/03/23 01:24:30;;;;;;;33.13;12.63;;;;;;;4.82;100.00;102617.44;5137324;28;20037;-69
2021/03/23 01:27:00;;;;;;;30.20;11.23;;;;;;;4.83;100.00;102608.50;5152689;28;20403;-69
2021/03/23 01:29:31;;;;;;;30.67;12.05;;;;;;;4.86;100.00;102613.63;5148871;28;20482;-69
2021/03/23 01:32:02;;;;;;;29.10;11.10;;;;;;;4.87;100.00;102614.50;5154319;28;20023;-69
2021/03/23 01:34:32;;;;;;;31.73;12.10;;;;;;;4.87;100.00;102620.69;5158131;28;20109;-69
2021/03/23 01:37:03;;;;;;;32.05;11.30;;;;;;;4.89;100.00;102612.63;5157904;28;20022;-69
2021/03/23 01:39:33;;;;;;;33.30;11.45;;;;;;;4.87;100.00;102615.38;5159595;28;20027;-69
2021/03/23 01:42:05;;;;;;;24.23;10.52;;;;;;;4.91;100.00;102614.25;5159919;28;20057;-69
2021/03/23 01:44:39;;;;;;;34.08;12.18;;;;;;;4.93;100.00;102615.03;5159798;28;20049;-69
2021/03/23 01:47:10;;;;;;;27.00;10.82;;;;;;;4.96;100.00;102610.47;5160087;28;20455;-69
2021/03/23 01:49:45;;;;;;;32.90;12.05;;;;;;;4.98;100.00;102613.91;5159899;28;20029;-69
2021/03/23 01:52:18;;;;;;;30.33;11.48;;;;;;;5.00;100.00;102609.34;5159154;28;20034;-69
2021/03/23 01:54:57;;;;;;;31.38;11.10;;;;;;;5.04;100.00;102608.25;5160608;28;20033;-69
2021/03/23 01:57:30;;;;;;;28.25;11.15;;;;;;;5.04;100.00;102606.44;5159617;28;20087;-69
2021/03/23 02:00:06;;;;;;;34.42;11.25;;;;;;;5.06;100.00;102606.34;5160202;28;20026;-69
2021/03/23 02:02:37;;;;;;;36.17;11.25;;;;;;;5.06;100.00;102607.19;5159677;28;20034;-69
2021/03/23 02:05:17;;;;;;;25.50;10.60;;;;;;;5.07;100.00;102605.38;5160824;28;20073;-69
2021/03/23 02:07:47;;;;;;;39.47;11.55;;;;;;;5.11;100.00;102607.78;5160220;28;20118;-69
2021/03/23 02:10:19;;;;;;;30.42;10.85;;;;;;;5.12;100.00;102600.66;5228050;28;20115;-69
2021/03/23 02:13:09;;;;;;;23.83;9.57;;;;;;;5.16;100.00;102605.72;5159522;28;20503;-69
2021/03/23 02:15:53;;;;;;;31.40;10.45;;;;;;;5.22;100.00;102604.53;5160380;28;20023;-69
2021/03/23 02:18:35;;;;;;;30.92;10.85;;;;;;;5.25;100.00;102611.47;5147372;28;20025;-69
2021/03/23 02:21:10;;;;;;;33.33;10.95;;;;;;;5.24;100.00;102610.63;5160033;28;20095;-69
2021/03/23 02:23:51;;;;;;;38.08;11.60;;;;;;;5.28;100.00;102600.66;5160516;28;20454;-69
2021/03/23 02:26:42;;;;;;;33.22;10.40;;;;;;;5.31;100.00;102595.13;5159197;28;20039;-69
2021/03/23 02:29:16;;;;;;;29.75;12.35;;;;;;;5.35;100.00;102594.88;5154555;28;20488;-69
2021/03/23 02:31:50;;;;;;;30.60;10.20;;;;;;;5.37;100.00;102587.66;5145911;28;20022;-69
2021/03/23 02:34:22;;;;;;;32.33;11.07;;;;;;;5.41;100.00;102583.84;5154634;28;20091;-69
2021/03/23 02:36:53;;;;;;;27.45;11.57;;;;;;;5.44;100.00;102589.00;5157177;28;20375;-69
2021/03/23 02:39:29;;;;;;;31.38;10.07;;;;;;;5.48;100.00;102589.69;5152242;28;20110;-69
2021/03/23 02:42:01;;;;;;;28.83;11.10;;;;;;;5.52;100.00;102585.03;5154084;28;20030;-69
2021/03/23 02:44:43;;;;;;;35.05;12.27;;;;;;;5.52;100.00;102585.88;5156031;28;20030;-69
2021/03/23 02:47:17;;;;;;;37.13;11.23;;;;;;;5.55;100.00;102583.03;5155940;28;20022;-69
2021/03/23 02:49:48;;;;;;;35.97;11.20;;;;;;;5.57;100.00;102574.97;5159381;28;20022;-69
2021/03/23 02:52:19;;;;;;;30.88;11.32;;;;;;;5.57;100.00;102577.63;5155693;28;20033;-69
2021/03/23 02:54:49;;;;;;;30.17;11.45;;;;;;;5.55;100.00;102577.72;5152003;28;20042;-69
2021/03/23 02:57:20;;;;;;;39.92;11.85;;;;;;;5.58;100.00;102572.22;5152761;28;20026;-69
2021/03/23 02:59:51;;;;;;;32.83;10.57;;;;;;;5.55;100.00;102572.41;5159562;28;20030;-69
2021/03/23 03:02:21;;;;;;;38.13;12.60;;;;;;;5.54;100.00;102573.34;5152153;28;20394;-69
2021/03/23 03:04:52;;;;;;;44.25;14.82;;;;;;;5.55;100.00;102576.88;5159944;28;20026;-69
2021/03/23 03:07:23;;;;;;;32.28;13.18;;;;;;;5.58;100.00;102574.03;5152230;28;20413;-69
2021/03/23 03:09:54;;;;;;;37.58;12.88;;;;;;;5.59;100.00;102563.28;5202582;28;20100;-69
2021/03/23 03:12:24;;;;;;;39.45;12.50;;;;;;;5.63;100.00;102563.97;5155281;28;20440;-69
2021/03/23 03:14:55;;;;;;;36.85;11.98;;;;;;;5.62;100.00;102567.56;5157135;28;20087;-69
2021/03/23 03:17:26;;;;;;;40.33;13.45;;;;;;;5.67;100.00;102566.34;5155397;28;20026;-69
2021/03/23 03:19:57;;;;;;;36.13;12.32;;;;;;;5.66;100.00;102574.41;5149514;28;20027;-69
2021/03/23 03:22:27;;;;;;;35.30;12.38;;;;;;;5.71;100.00;102569.66;5153443;28;20026;-69
2021/03/23 03:24:58;;;;;;;39.28;12.05;;;;;;;5.66;100.00;102585.91;5155450;28;20034;-69
2021/03/23 03:27:28;;;;;;;36.70;13.00;;;;;;;5.62;100.00;102581.75;5155309;28;20486;-69
2021/03/23 03:29:59;;;;;;;38.92;12.05;;;;;;;5.62;100.00;102584.41;5154934;28;20030;-69
2021/03/23 03:32:30;;;;;;;37.97;12.50;;;;;;;5.63;100.00;102577.28;5154813;28;20026;-69
2021/03/23 03:35:01;;;;;;;40.30;13.40;;;;;;;5.61;100.00;102579.16;5155342;28;20026;-69
2021/03/23 03:37:31;;;;;;;40.28;13.80;;;;;;;5.59;100.00;102573.06;5158618;28;20471;-69
2021/03/23 03:40:06;;;;;;;36.28;12.45;;;;;;;5.57;100.00;102577.63;5155497;28;20030;-69
2021/03/23 03:42:37;;;;;;;33.47;12.75;;;;;;;5.58;100.00;102579.34;5140905;28;20510;-69
2021/03/23 03:45:09;;;;;;;39.05;13.40;;;;;;;5.56;100.00;102582.09;5148634;28;20065;-69
2021/03/23 03:47:40;;;;;;;30.45;11.82;;;;;;;5.60;100.00;102577.44;5152292;28;20072;-69
2021/03/23 03:50:12;;;;;;;38.65;13.25;;;;;;;5.57;100.00;102577.63;5153471;28;20441;-69
2021/03/23 03:52:43;;;;;;;36.38;13.30;;;;;;;5.57;100.00;102574.97;5153207;28;20037;-69
2021/03/23 03:55:15;;;;;;;40.25;14.45;;;;;;;5.55;100.00;102572.41;5142243;28;20030;-69
2021/03/23 03:57:46;;;;;;;39.85;14.60;;;;;;;5.55;100.00;102569.75;5144917;28;20023;-70
2021/03/23 04:00:19;;;;;;;40.03;14.20;;;;;;;5.55;100.00;102572.41;5151102;28;20022;-69
2021/03/23 04:02:50;;;;;;;43.33;13.43;;;;;;;5.54;100.00;102570.69;5154180;28;20030;-69
2021/03/23 04:05:26;;;;;;;38.83;13.43;;;;;;;5.52;100.00;102569.91;5150995;28;20532;-69
2021/03/23 04:07:56;;;;;;;37.78;14.75;;;;;;;5.52;100.00;102577.03;5154805;28;20398;-69
2021/03/23 04:10:28;;;;;;;38.42;13.48;;;;;;;5.52;100.00;102577.91;5157660;28;20033;-69
2021/03/23 04:12:59;;;;;;;43.38;14.18;;;;;;;5.54;100.00;102575.16;5141189;28;20466;-69
2021/03/23 04:15:31;;;;;;;36.22;13.02;;;;;;;5.54;100.00;102575.16;5140049;28;20110;-69
2021/03/23 04:18:03;;;;;;;39.15;14.05;;;;;;;5.51;100.00;102572.66;5148513;28;20042;-69
2021/03/23 04:20:34;;;;;;;44.17;14.35;;;;;;;5.48;100.00;102572.88;5146215;28;20034;-69
2021/03/23 04:23:08;;;;;;;41.85;13.32;;;;;;;5.55;100.00;102567.06;5140042;28;20035;-69
2021/03/23 04:25:38;;;;;;;42.97;13.98;;;;;;;5.53;100.00;102565.47;5153162;28;20029;-69
2021/03/23 04:28:09;;;;;;;41.22;14.27;;;;;;;5.50;100.00;102574.47;5140767;28;20390;-69
2021/03/23 04:30:39;;;;;;;40.35;14.40;;;;;;;5.51;100.00;102565.53;5153985;28;20111;-69
2021/03/23 04:33:10;;;;;;;45.67;14.85;;;;;;;5.51;100.00;102560.22;5140811;28;20061;-69
2021/03/23 04:35:49;;;;;;;43.90;14.93;;;;;;;5.54;100.00;102561.84;5150226;28;20031;-69
2021/03/23 04:38:23;;;;;;;34.15;13.95;;;;;;;5.55;100.00;102568.88;5147001;28;20037;-69
2021/03/23 04:40:55;;;;;;;36.63;12.98;;;;;;;5.54;100.00;102567.16;5157407;28;20467;-69
2021/03/23 04:43:29;;;;;;;38.38;13.88;;;;;;;5.52;100.00;102566.38;5151493;28;20037;-69
2021/03/23 04:45:59;;;;;;;39.58;14.98;;;;;;;5.49;100.00;102569.25;5151992;28;20038;-69
2021/03/23 04:48:30;;;;;;;46.70;15.35;;;;;;;5.49;100.00;102570.09;5156185;28;20102;-69
2021/03/23 04:51:02;;;;;;;41.40;14.38;;;;;;;5.54;100.00;102553.88;5154264;28;20034;-69
2021/03/23 04:53:35;;;;;;;37.75;13.90;;;;;;;5.56;100.00;102562.59;5148190;28;20096;-69
2021/03/23 04:56:07;;;;;;;38.17;14.65;;;;;;;5.53;100.00;102563.66;5156518;28;20033;-69
2021/03/23 04:58:38;;;;;;;42.97;13.40;;;;;;;5.60;100.00;102556.16;5154556;28;20490;-69
2021/03/23 05:01:08;;;;;;;35.80;13.95;;;;;;;5.59;100.00;102563.28;5150398;28;20323;-69
2021/03/23 05:03:39;;;;;;;35.90;14.27;;;;;;;5.53;100.00;102557.47;5153930;28;20106;-69
2021/03/23 05:06:11;;;;;;;41.05;14.00;;;;;;;5.55;100.00;102547.59;5156473;28;20184;-69
2021/03/23 05:08:43;;;;;;;46.08;14.52;;;;;;;5.57;100.00;102558.97;5159560;28;20029;-69
2021/03/23 05:11:22;;;;;;;38.83;14.73;;;;;;;5.61;100.00;102549.88;5192458;28;20035;-69
2021/03/23 05:13:52;;;;;;;51.20;16.88;;;;;;;5.51;100.00;102559.34;5171536;28;20023;-69
2021/03/23 05:16:23;;;;;;;38.10;14.10;;;;;;;5.47;100.00;102564.00;5158007;28;20052;-69
2021/03/23 05:18:54;;;;;;;38.22;14.55;;;;;;;5.42;100.00;102561.63;5157425;28;20038;-69
2021/03/23 05:21:24;;;;;;;37.45;14.95;;;;;;;5.44;100.00;102565.06;5158005;28;20026;-69
2021/03/23 05:23:58;;;;;;;47.08;15.05;;;;;;;5.47;100.00;102564.00;5155357;28;20513;-69
2021/03/23 05:26:30;;;;;;;41.80;14.68;;;;;;;5.46;100.00;102570.28;5158494;28;20082;-69
2021/03/23 05:29:00;;;;;;;36.17;14.02;;;;;;;5.48;100.00;102570.22;5158736;28;20026;-69
2021/03/23 05:31:33;;;;;;;39.22;14.02;;;;;;;5.50;100.00;102578.94;5155873;28;20041;-68
2021/03/23 05:34:03;;;;;;;39.72;15.23;;;;;;;5.55;100.00;102582.19;5160035;28;20463;-69
2021/03/23 05:36:34;;;;;;;37.47;14.00;;;;;;;5.58;100.00;102582.03;5158089;28;20107;-69
2021/03/23 05:39:05;;;;;;;40.17;13.98;;;;;;;5.55;100.00;102580.38;5157679;28;20026;-70
2021/03/23 05:41:44;;;;;;;40.42;14.55;;;;;;;5.53;100.00;102581.44;5160013;28;20026;-70
2021/03/23 05:44:29;;;;;;;39.10;14.05;;;;;;;5.48;100.00;102583.53;5156578;28;20161;-70
2021/03/23 05:47:00;;;;;;;43.72;15.27;;;;;;;5.49;100.00;102579.91;5158998;28;20037;-70
2021/03/23 05:49:37;;;;;;;41.88;13.60;;;;;;;5.48;100.00;102587.03;5159832;28;20395;-70
2021/03/23 05:52:31;;;;;;;47.70;13.85;;;;;;;5.54;100.00;102583.16;5160450;28;20475;-70
2021/03/23 05:55:05;;;;;;;40.13;14.07;;;;;;;5.61;100.00;102590.66;5160272;28;20019;-70
2021/03/23 05:57:43;;;;;;;40.00;13.65;;;;;;;5.58;100.00;102587.34;5160312;28;20034;-70
2021/03/23 06:00:15;;;;;;;36.17;12.88;;;;;;;5.57;100.00;102593.59;5159830;28;20026;-70
2021/03/23 06:03:20;;;;;;;38.85;13.50;;;;;;;5.54;100.00;102593.78;5160450;28;20083;-70
2021/03/23 06:05:58;;;;;;;35.50;12.75;;;;;;;5.58;100.00;102590.88;5160041;28;20111;-70
2021/03/23 06:08:32;;;;;;;35.05;13.80;;;;;;;5.68;100.00;102588.50;5159863;28;20031;-70
2021/03/23 06:11:17;;;;;;;40.80;13.63;;;;;;;5.75;100.00;102581.84;5162862;28;20452;-70
2021/03/23 06:14:02;;;;;;;37.92;14.10;;;;;;;5.71;100.00;102588.31;5187380;28;20038;-70
2021/03/23 06:16:43;;;;;;;37.50;13.67;;;;;;;5.69;100.00;102585.75;5154676;28;20036;-70
2021/03/23 06:19:28;;;;;;;41.63;14.23;;;;;;;5.70;100.00;102583.94;5154053;28;20549;-70
2021/03/23 06:22:53;;;;;;;35.08;13.20;;;;;;;5.71;100.00;102585.66;5155623;28;20022;-70
2021/03/23 06:25:28;;;;;;;39.63;15.15;;;;;;;5.78;100.00;102580.81;5152843;28;20479;-69
2021/03/23 06:28:14;;;;;;;40.85;14.25;;;;;;;5.79;100.00;102585.19;5156304;28;20041;-69
2021/03/23 06:30:53;;;;;;;44.33;13.85;;;;;;;5.83;100.00;102590.25;5151466;28;20050;-70
2021/03/23 06:33:26;;;;;;;44.25;14.10;;;;;;;5.87;100.00;102593.56;5155730;28;20029;-70
2021/03/23 06:36:02;;;;;;;41.97;14.20;;;;;;;5.91;100.00;102603.09;5155831;28;20483;-70
2021/03/23 06:38:37;;;;;;;33.78;13.60;;;;;;;5.94;100.00;102606.47;5159050;28;20018;-70
2021/03/23 06:41:09;;;;;;;45.70;15.07;;;;;;;6.03;100.00;102602.38;5156690;28;20423;-70
2021/03/23 06:43:44;;;;;;;42.17;14.52;;;;;;;5.99;100.00;102613.31;5157096;28;20113;-70
2021/03/23 06:46:31;;;;;;;48.65;15.32;;;;;;;6.03;100.00;102610.38;5152138;28;20037;-70
2021/03/23 06:49:05;;;;;;;40.90;14.80;;;;;;;6.09;100.00;102606.47;5159399;28;20027;-70
2021/03/23 06:51:36;;;;;;;41.97;14.93;;;;;;;6.19;100.00;102612.94;5156835;28;20079;-70
2021/03/23 06:54:25;;;;;;;44.08;15.32;;;;;;;6.18;100.00;102616.56;5157702;28;20035;-70
2021/03/23 06:57:03;;;;;;;49.35;15.25;;;;;;;6.28;100.00;102616.88;5156254;28;20030;-70
2021/03/23 06:59:48;;;;;;;40.70;15.25;;;;;;;6.33;100.00;102614.78;5156956;28;20033;-70
2021/03/23 07:02:29;;;;;;;36.13;13.93;;;;;;;6.33;100.00;102615.63;5158031;28;20046;-70
2021/03/23 07:05:18;;;;;;;42.28;15.18;;;;;;;6.41;100.00;102615.97;5156585;28;20034;-69
2021/03/23 07:07:55;;;;;;;35.65;14.23;;;;;;;6.36;100.00;102607.41;5154812;28;20035;-70
2021/03/23 07:10:36;;;;;;;39.80;15.88;;;;;;;6.43;100.00;102614.09;5158314;28;20061;-70
2021/03/23 07:13:29;;;;;;;40.35;16.00;;;;;;;6.51;100.00;102610.06;5177462;28;20023;-69
2021/03/23 07:16:05;;;;;;;46.03;16.48;;;;;;;6.55;100.00;102622.28;5145612;28;20026;-70
2021/03/23 07:18:38;;;;;;;45.45;15.52;;;;;;;6.58;100.00;102622.94;5154539;28;20018;-70
2021/03/23 07:21:14;;;;;;;42.42;15.10;;;;;;;6.59;100.00;102616.66;5156599;28;20105;-70
2021/03/23 07:23:45;;;;;;;41.47;14.07;;;;;;;6.63;100.00;102618.16;5148743;28;20034;-70
2021/03/23 07:26:34;;;;;;;40.67;14.35;;;;;;;6.79;100.00;102614.53;5143111;28;20027;-70
2021/03/23 07:29:10;;;;;;;34.08;13.45;;;;;;;6.80;100.00;102611.75;5144375;28;20031;-70
2021/03/23 07:31:55;;;;;;;44.00;14.73;;;;;;;6.89;100.00;102613.81;5153587;28;20117;-70
2021/03/23 07:34:36;;;;;;;44.42;14.68;;;;;;;6.98;100.00;102618.56;5143264;28;20033;-70
2021/03/23 07:37:16;;;;;;;36.63;13.23;;;;;;;7.06;100.00;102611.88;5149720;28;20387;-70
2021/03/23 07:39:54;;;;;;;40.13;13.05;;;;;;;7.09;100.00;102609.88;5157204;28;20056;-70
2021/03/23 07:42:55;;;;;;;46.63;15.05;;;;;;;7.20;100.00;102611.81;5156104;28;20034;-70
2021/03/23 07:45:34;;;;;;;39.53;13.35;;;;;;;7.23;100.00;102617.81;5149983;28;20379;-70
2021/03/23 07:48:12;;;;;;;39.45;15.02;;;;;;;7.24;100.00;102621.34;5151742;28;20054;-70
2021/03/23 07:50:45;;;;;;;39.20;13.68;;;;;;;7.39;100.00;102623.00;5156521;28;20539;-70
2021/03/23 07:53:25;;;;;;;36.13;12.18;;;;;;;7.41;100.00;102630.91;5153912;28;20087;-70
2021/03/23 07:56:10;;;;;;;32.63;13.23;;;;;;;7.52;100.00;102631.03;5150484;28;20080;-70
2021/03/23 07:59:00;;;;;;;32.30;13.77;;;;;;;7.66;100.00;102635.44;5154608;28;20038;-70
2021/03/23 08:01:37;;;;;;;32.20;12.52;;;;;;;7.79;100.00;102642.53;5148593;28;20022;-70
2021/03/23 08:04:11;;;;;;;36.45;13.63;;;;;;;7.81;100.00;102639.75;5154548;28;20498;-70
2021/03/23 08:06:53;;;;;;;32.77;13.00;;;;;;;7.94;100.00;102645.97;5153475;28;20063;-69
2021/03/23 08:09:49;;;;;;;35.05;13.18;;;;;;;7.95;100.00;102642.34;5153047;28;20030;-70
2021/03/23 08:12:42;;;;;;;37.67;12.70;;;;;;;8.02;100.00;102640.09;5154248;28;20113;-70
2021/03/23 08:15:31;;;;;;;33.60;12.57;;;;;;;8.13;100.00;102634.00;5155493;28;20101;-69
2021/03/23 08:18:29;;;;;;;38.60;13.15;;;;;;;8.13;100.00;102637.50;5150040;28;20042;-70
2021/03/23 08:21:24;;;;;;;52.03;13.35;;;;;;;8.30;100.00;102636.34;5150996;28;20022;-69
2021/03/23 08:24:11;;;;;;;27.50;11.23;;;;;;;8.42;100.00;102631.97;5138878;28;20027;-70
2021/03/23 08:27:29;;;;;;;30.75;11.45;;;;;;;8.45;100.00;102640.66;5145435;28;20070;-70
2021/03/23 08:30:07;;;;;;;35.20;12.20;;;;;;;8.54;100.00;102633.81;5151455;28;20092;-70
2021/03/23 08:32:50;;;;;;;32.38;11.80;;;;;;;8.71;100.00;102637.94;5145062;28;20035;-70
2021/03/23 08:35:31;;;;;;;29.30;11.05;;;;;;;8.98;100.00;102635.91;5145758;28;20035;-70
2021/03/23 08:38:19;;;;;;;38.88;11.98;;;;;;;8.84;100.00;102635.25;5149712;28;20109;-70
2021/03/23 08:41:12;;;;;;;27.77;11.70;;;;;;;8.95;100.00;102641.50;5152247;28;20042;-70
2021/03/23 08:43:44;;;;;;;26.63;10.55;;;;;;;9.17;100.00;102643.47;5146065;28;20050;-70
2021/03/23 08:46:20;;;;;;;28.92;11.27;;;;;;;9.08;100.00;102644.13;5158181;28;20290;-70
2021/03/23 08:48:56;;;;;;;38.15;12.18;;;;;;;9.16;100.00;102641.75;5150838;28;20026;-70
2021/03/23 08:51:29;;;;;;;29.20;12.32;;;;;;;9.40;100.00;102636.41;5143572;28;20511;-70
2021/03/23 08:54:02;;;;;;;26.95;11.27;;;;;;;9.59;100.00;102639.41;5148673;28;20479;-69
2021/03/23 08:56:42;;;;;;;28.10;10.52;;;;;;;9.72;100.00;102641.13;5144672;28;20062;-70
2021/03/23 08:59:31;;;;;;;26.55;10.90;;;;;;;9.73;100.00;102651.72;5150353;28;20387;-70
2021/03/23 09:02:28;;;;;;;30.80;10.10;;;;;;;9.91;100.00;102646.81;5149969;28;20066;-70
2021/03/23 09:04:59;;;;;;;30.42;10.07;;;;;;;9.96;100.00;102652.66;5159820;28;20398;-70
2021/03/23 09:07:34;;;;;;;26.67;9.20;;;;;;;10.02;100.00;102659.38;5150046;28;20030;-70
2021/03/23 09:10:47;;;;;;;28.92;11.45;;;;;;;10.24;100.00;102650.53;5157273;28;20505;-70
2021/03/23 09:13:44;;;;;;;28.45;11.77;;;;;;;10.43;100.00;102650.81;5166942;28;20075;-70
2021/03/23 09:16:37;;;;;;;29.83;10.63;;;;;;;10.42;100.00;102648.25;5140767;28;20093;-70
2021/03/23 09:19:09;;;;;;;25.55;9.77;;;;;;;10.41;100.00;102652.75;5151215;28;20300;-70
2021/03/23 09:21:52;;;;;;;25.15;10.25;;;;;;;10.45;100.00;102648.88;5155098;28;20075;-70
2021/03/23 09:24:26;;;;;;;35.47;10.45;;;;;;;10.53;100.00;102643.72;5147651;28;20575;-70
2021/03/23 09:26:57;;;;;;;31.27;9.77;;;;;;;10.45;100.00;102642.66;5152996;28;20084;-70
2021/03/23 09:29:28;;;;;;;24.77;8.98;;;;;;;10.71;100.00;102641.41;5151747;28;20091;-71
2021/03/23 09:32:02;;;;;;;24.48;10.18;;;;;;;10.79;100.00;102638.09;5151039;28;20034;-70
2021/03/23 09:35:10;;;;;;;23.17;9.30;;;;;;;10.76;100.00;102641.91;5141087;28;20031;-70
2021/03/23 09:37:42;;;;;;;22.10;10.40;;;;;;;10.87;100.00;102644.56;5152711;28;20033;-70
2021/03/23 09:40:19;;;;;;;23.63;9.60;;;;;;;10.81;100.00;102646.91;5156152;28;20479;-71
2021/03/23 09:42:50;;;;;;;25.70;10.02;;;;;;;10.96;100.00;102648.34;5150880;28;20043;-70
2021/03/23 09:45:35;;;;;;;24.23;9.95;;;;;;;10.99;100.00;102652.59;5152843;28;20043;-70
2021/03/23 09:48:12;;;;;;;23.15;9.70;;;;;;;10.95;96.40;102646.63;5151823;28;20026;-70
2021/03/23 09:50:52;;;;;;;20.90;9.55;;;;;;;10.94;100.00;102644.06;5146824;28;20023;-70
2021/03/23 09:53:28;;;;;;;23.17;9.68;;;;;;;11.19;100.00;102640.22;5152767;28;20460;-70
2021/03/23 09:56:08;;;;;;;26.35;10.15;;;;;;;11.20;93.49;102642.78;5157444;28;20397;-70
2021/03/23 09:58:39;;;;;;;27.65;10.50;;;;;;;11.28;100.00;102642.16;5157600;28;20113;-71
2021/03/23 10:01:13;;;;;;;28.40;10.63;;;;;;;11.19;98.67;102638.38;5147960;28;20561;-70
2021/03/23 10:03:45;;;;;;;29.92;10.27;;;;;;;11.24;100.00;102651.44;5153509;28;20042;-70
2021/03/23 10:06:20;;;;;;;23.42;9.63;;;;;;;11.20;100.00;102634.72;5150622;28;20062;-70
2021/03/23 10:08:56;;;;;;;30.27;10.25;;;;;;;11.32;100.00;102633.69;5150302;28;20030;-70
2021/03/23 10:11:35;;;;;;;26.35;10.02;;;;;;;11.34;94.76;102630.88;5142783;28;20074;-70
2021/03/23 10:14:12;;;;;;;21.42;9.23;;;;;;;11.41;100.00;102640.16;5145732;28;20498;-70
2021/03/23 10:16:44;;;;;;;23.92;9.82;;;;;;;11.72;95.46;102641.09;5157747;28;20449;-70
2021/03/23 10:19:22;;;;;;;20.27;8.95;;;;;;;11.78;91.62;102643.28;5156589;28;20101;-70
2021/03/23 10:21:54;;;;;;;23.08;9.90;;;;;;;11.77;89.62;102632.66;5157094;28;20506;-70
2021/03/23 10:24:26;;;;;;;28.23;9.02;;;;;;;11.59;81.58;102635.03;5158014;28;20034;-70
2021/03/23 10:26:57;;;;;;;32.95;10.10;;;;;;;11.59;84.64;102619.78;5155879;28;20022;-70
2021/03/23 10:29:28;;;;;;;25.23;9.88;;;;;;;11.74;90.56;102630.22;5150634;28;20091;-71
2021/03/23 10:32:15;;;;;;;29.33;10.10;;;;;;;11.86;93.43;102621.16;5153257;28;20030;-70
2021/03/23 10:35:13;;;;;;;26.10;10.60;;;;;;;11.75;85.43;102622.03;5151113;28;20067;-70
2021/03/23 10:37:44;;;;;;;30.10;11.27;;;;;;;11.82;95.19;102614.31;5156033;28;20111;-70
2021/03/23 10:40:35;;;;;;;27.73;9.80;;;;;;;11.92;82.63;102609.84;5148844;28;20479;-69
2021/03/23 10:43:10;;;;;;;27.30;10.23;;;;;;;11.90;85.04;102611.84;5138873;28;20058;-70
2021/03/23 10:45:46;;;;;;;29.45;9.88;;;;;;;11.81;82.82;102612.59;5150728;28;20091;-69
2021/03/23 10:48:21;;;;;;;;;;;;;;;11.79;90.04;102614.53;5139259;28;20041;-70
2021/03/23 10:51:16;;;;;;;19.38;9.88;;;;;;;11.90;84.15;102619.91;5139749;28;19949;-71
2021/03/23 10:54:05;;;;;;;25.38;9.45;;;;;;;11.88;88.73;102616.47;5152857;28;20026;-70
2021/03/23 10:56:44;;;;;;;26.23;10.60;;;;;;;12.00;86.15;102614.56;5146454;28;20117;-69
2021/03/23 10:59:18;;;;;;;24.08;10.30;;;;;;;12.02;75.88;102612.59;5144836;28;20030;-70
2021/03/23 11:02:13;;;;;;;27.20;10.18;;;;;;;12.14;95.09;102609.69;5143393;28;20030;-70
2021/03/23 11:05:02;;;;;;;30.30;11.48;;;;;;;12.26;85.92;102612.31;5136740;28;20450;-70
2021/03/23 11:07:34;;;;;;;28.10;10.30;;;;;;;12.31;84.61;102616.31;5137680;28;20041;-70
2021/03/23 11:10:09;;;;;;;23.13;11.10;;;;;;;12.66;93.21;102615.88;5147405;28;20692;-70
2021/03/23 11:12:40;;;;;;;;;;;;;;;12.78;77.04;102621.16;5137256;28;20030;-70
2021/03/23 11:15:11;;;;;;;23.85;11.15;;;;;;;12.62;84.52;102619.81;5144346;28;19913;-69
2021/03/23 11:17:50;;;;;;;24.73;10.70;;;;;;;12.90;92.41;102617.31;5199096;28;20486;-70
2021/03/23 11:20:25;;;;;;;23.75;10.10;;;;;;;13.06;71.22;102617.66;5148668;28;20282;-70
2021/03/23 11:22:56;;;;;;;20.23;9.93;;;;;;;13.07;76.33;102619.38;5151308;28;20018;-71
2021/03/23 11:25:27;;;;;;;32.13;10.68;;;;;;;13.01;72.10;102614.53;5153194;28;20064;-71
2021/03/23 11:28:02;;;;;;;22.83;11.35;;;;;;;13.01;73.61;102614.53;5156496;28;20456;-70
2021/03/23 11:30:32;;;;;;;23.45;10.63;;;;;;;13.36;77.29;102621.28;5156320;28;20111;-70
2021/03/23 11:33:03;;;;;;;24.75;11.27;;;;;;;13.40;72.42;102614.59;5151898;28;20035;-71
2021/03/23 11:35:33;;;;;;;23.20;10.88;;;;;;;13.46;75.68;102619.44;5156307;28;20060;-70
2021/03/23 11:38:03;;;;;;;27.35;11.57;;;;;;;13.66;69.17;102612.19;5148287;28;20451;-71
2021/03/23 11:40:34;;;;;;;25.15;12.20;;;;;;;13.77;78.13;102608.47;5148502;28;20494;-70
2021/03/23 11:43:05;;;;;;;30.40;11.50;;;;;;;13.93;72.66;102606.03;5151727;28;20050;-70
2021/03/23 11:45:41;;;;;;;24.63;11.90;;;;;;;13.83;71.20;102597.09;5153243;28;20030;-71
2021/03/23 11:48:14;;;;;;;25.27;11.70;;;;;;;13.80;73.03;102600.06;5152898;28;20486;-70
2021/03/23 11:50:48;;;;;;;28.10;12.07;;;;;;;13.91;69.67;102598.09;5153881;28;20026;-70